Terminal Aerodrome Forecast
Issued by NWS

Home | Current Version | Previous Version | Text Only | Print | Product List | Glossary On
Versions: 1 2 3 4 5 6 7 8 9 10 11 12 13 14 15
000
FTUS42 KMLB 030537
TAFTIX
TAF
KTIX 030537Z 0306/0406 00000KT P6SM VCSH OVC100
     FM031400 13005KT P6SM VCSH SCT030 SCT100 BKN250
     FM031700 10009KT P6SM VCSH SCT025 BKN060
     FM040000 09006KT P6SM SCT025
      AMD NOT SKED TIL 031200=

USA.gov is the U.S. government's official web portal to all federal, state and local government web resources and services.